sensor_id;sensor_type;location;lat;lon;timestamp;temperature;humidity
19172;DHT22;9718;52.200;21.052;2022-09-19T00:03:14;10.30;99.90
19172;DHT22;9718;52.200;21.052;2022-09-19T00:05:41;10.10;99.90
19172;DHT22;9718;52.200;21.052;2022-09-19T00:08:08;10.00;99.90
19172;DHT22;9718;52.200;21.052;2022-09-19T00:10:41;10.00;99.90
19172;DHT22;9718;52.200;21.052;2022-09-19T00:13:08;10.00;99.90
19172;DHT22;9718;52.200;21.052;2022-09-19T00:15:36;9.90;99.90
19172;DHT22;9718;52.200;21.052;2022-09-19T00:18:11;9.80;99.90
19172;DHT22;9718;52.200;21.052;2022-09-19T00:20:42;9.80;99.90
19172;DHT22;9718;52.200;21.052;2022-09-19T00:23:12;9.80;99.90
19172;DHT22;9718;52.200;21.052;2022-09-19T00:47:07;9.60;99.90
19172;DHT22;9718;52.200;21.052;2022-09-19T00:49:39;9.60;99.90
19172;DHT22;9718;52.200;21.052;2022-09-19T00:52:10;9.60;99.90
19172;DHT22;9718;52.200;21.052;2022-09-19T00:54:41;9.60;99.90
19172;DHT22;9718;52.200;21.052;2022-09-19T00:57:11;9.50;99.90
19172;DHT22;9718;52.200;21.052;2022-09-19T00:59:42;9.60;99.90
19172;DHT22;9718;52.200;21.052;2022-09-19T01:03:09;9.70;99.90
19172;DHT22;9718;52.200;21.052;2022-09-19T01:08:51;9.50;99.90
19172;DHT22;9718;52.200;21.052;2022-09-19T01:14:30;9.50;99.90
19172;DHT22;9718;52.200;21.052;2022-09-19T01:17:16;9.40;99.90
19172;DHT22;9718;52.200;21.052;2022-09-19T01:28:23;9.30;99.90
19172;DHT22;9718;52.200;21.052;2022-09-19T01:31:12;9.30;99.90
19172;DHT22;9718;52.200;21.052;2022-09-19T01:34:10;9.20;99.90
19172;DHT22;9718;52.200;21.052;2022-09-19T01:36:43;9.10;99.90
19172;DHT22;9718;52.200;21.052;2022-09-19T01:39:16;9.10;99.90
19172;DHT22;9718;52.200;21.052;2022-09-19T01:41:53;9.10;99.90
19172;DHT22;9718;52.200;21.052;2022-09-19T01:44:23;9.10;99.90
19172;DHT22;9718;52.200;21.052;2022-09-19T01:49:51;9.00;99.90
19172;DHT22;9718;52.200;21.052;2022-09-19T01:58:47;8.90;99.90
19172;DHT22;9718;52.200;21.052;2022-09-19T02:04:06;8.80;99.90
19172;DHT22;9718;52.200;21.052;2022-09-19T02:06:56;8.70;99.90
19172;DHT22;9718;52.200;21.052;2022-09-19T02:12:17;8.60;99.90
19172;DHT22;9718;52.200;21.052;2022-09-19T02:14:47;8.60;99.90
19172;DHT22;9718;52.200;21.052;2022-09-19T02:17:35;8.50;99.90
19172;DHT22;9718;52.200;21.052;2022-09-19T02:20:16;8.50;99.90
19172;DHT22;9718;52.200;21.052;2022-09-19T02:22:48;8.40;99.90
19172;DHT22;9718;52.200;21.052;2022-09-19T02:25:22;8.40;99.90
19172;DHT22;9718;52.200;21.052;2022-09-19T02:27:55;8.30;99.90
19172;DHT22;9718;52.200;21.052;2022-09-19T02:30:22;8.30;99.90
19172;DHT22;9718;52.200;21.052;2022-09-19T02:32:49;8.20;99.90
19172;DHT22;9718;52.200;21.052;2022-09-19T02:35:30;8.20;99.90
19172;DHT22;9718;52.200;21.052;2022-09-19T02:41:05;8.20;99.90
19172;DHT22;9718;52.200;21.052;2022-09-19T02:46:14;8.10;99.90
19172;DHT22;9718;52.200;21.052;2022-09-19T02:48:55;8.10;99.90
19172;DHT22;9718;52.200;21.052;2022-09-19T02:51:30;8.00;99.90
19172;DHT22;9718;52.200;21.052;2022-09-19T02:54:03;8.00;99.90
19172;DHT22;9718;52.200;21.052;2022-09-19T02:56:34;8.00;99.90
19172;DHT22;9718;52.200;21.052;2022-09-19T02:59:07;8.00;99.90
19172;DHT22;9718;52.200;21.052;2022-09-19T03:01:37;7.90;99.90
19172;DHT22;9718;52.200;21.052;2022-09-19T03:04:28;8.00;99.90
19172;DHT22;9718;52.200;21.052;2022-09-19T03:07:11;7.90;99.90
19172;DHT22;9718;52.200;21.052;2022-09-19T03:09:44;7.90;99.90
19172;DHT22;9718;52.200;21.052;2022-09-19T03:12:22;8.00;99.90
19172;DHT22;9718;52.200;21.052;2022-09-19T03:14:53;8.00;99.90
19172;DHT22;9718;52.200;21.052;2022-09-19T03:17:26;8.00;99.90
19172;DHT22;9718;52.200;21.052;2022-09-19T03:19:54;8.00;99.90
19172;DHT22;9718;52.200;21.052;2022-09-19T03:22:22;8.00;99.90
19172;DHT22;9718;52.200;21.052;2022-09-19T03:24:48;8.10;99.90
19172;DHT22;9718;52.200;21.052;2022-09-19T03:27:28;8.00;99.90
19172;DHT22;9718;52.200;21.052;2022-09-19T03:29:54;8.10;99.90
19172;DHT22;9718;52.200;21.052;2022-09-19T03:32:20;8.00;99.90
19172;DHT22;9718;52.200;21.052;2022-09-19T03:34:51;8.10;99.90
19172;DHT22;9718;52.200;21.052;2022-09-19T03:37:22;8.10;99.90
19172;DHT22;9718;52.200;21.052;2022-09-19T03:39:49;8.10;99.90
19172;DHT22;9718;52.200;21.052;2022-09-19T03:42:15;8.10;99.90
19172;DHT22;9718;52.200;21.052;2022-09-19T03:44:42;8.10;99.90
19172;DHT22;9718;52.200;21.052;2022-09-19T03:49:48;8.20;99.90
19172;DHT22;9718;52.200;21.052;2022-09-19T03:52:18;8.30;99.90
19172;DHT22;9718;52.200;21.052;2022-09-19T03:54:45;8.30;99.90
19172;DHT22;9718;52.200;21.052;2022-09-19T03:57:13;8.20;99.90
19172;DHT22;9718;52.200;21.052;2022-09-19T03:59:41;8.20;99.90
19172;DHT22;9718;52.200;21.052;2022-09-19T04:02:09;8.20;99.90
19172;DHT22;9718;52.200;21.052;2022-09-19T04:04:37;8.10;99.90
19172;DHT22;9718;52.200;21.052;2022-09-19T04:07:03;8.10;99.90
19172;DHT22;9718;52.200;21.052;2022-09-19T04:09:30;8.10;99.90
19172;DHT22;9718;52.200;21.052;2022-09-19T04:12:11;8.10;99.90
19172;DHT22;9718;52.200;21.052;2022-09-19T04:14:38;8.10;99.90
19172;DHT22;9718;52.200;21.052;2022-09-19T04:17:05;8.10;99.90
19172;DHT22;9718;52.200;21.052;2022-09-19T04:19:48;8.20;99.90
19172;DHT22;9718;52.200;21.052;2022-09-19T04:22:16;8.20;99.90
19172;DHT22;9718;52.200;21.052;2022-09-19T04:24:45;8.20;99.90
19172;DHT22;9718;52.200;21.052;2022-09-19T04:27:12;8.20;99.90
19172;DHT22;9718;52.200;21.052;2022-09-19T04:29:43;8.10;99.90
19172;DHT22;9718;52.200;21.052;2022-09-19T04:32:09;8.10;99.90
19172;DHT22;9718;52.200;21.052;2022-09-19T04:34:46;8.10;99.90
19172;DHT22;9718;52.200;21.052;2022-09-19T04:37:13;8.10;99.90
19172;DHT22;9718;52.200;21.052;2022-09-19T04:39:41;8.10;99.90
19172;DHT22;9718;52.200;21.052;2022-09-19T04:42:07;8.10;99.90
19172;DHT22;9718;52.200;21.052;2022-09-19T04:44:34;8.10;99.90
19172;DHT22;9718;52.200;21.052;2022-09-19T04:47:00;8.00;99.90
19172;DHT22;9718;52.200;21.052;2022-09-19T04:49:27;8.10;99.90
19172;DHT22;9718;52.200;21.052;2022-09-19T04:51:59;8.20;99.90
19172;DHT22;9718;52.200;21.052;2022-09-19T04:54:48;8.20;99.90
19172;DHT22;9718;52.200;21.052;2022-09-19T04:57:14;8.20;99.90
19172;DHT22;9718;52.200;21.052;2022-09-19T04:59:41;8.10;99.90
19172;DHT22;9718;52.200;21.052;2022-09-19T05:02:08;8.10;99.90
19172;DHT22;9718;52.200;21.052;2022-09-19T05:04:37;8.10;99.90
19172;DHT22;9718;52.200;21.052;2022-09-19T05:07:04;8.10;99.90
19172;DHT22;9718;52.200;21.052;2022-09-19T05:09:40;8.20;99.90
19172;DHT22;9718;52.200;21.052;2022-09-19T05:12:09;8.10;99.90
19172;DHT22;9718;52.200;21.052;2022-09-19T05:27:39;8.00;99.90
19172;DHT22;9718;52.200;21.052;2022-09-19T05:30:07;8.30;99.90
19172;DHT22;9718;52.200;21.052;2022-09-19T05:32:33;8.20;99.90
19172;DHT22;9718;52.200;21.052;2022-09-19T05:35:00;8.30;99.90
19172;DHT22;9718;52.200;21.052;2022-09-19T05:37:28;8.30;99.90
19172;DHT22;9718;52.200;21.052;2022-09-19T05:39:54;8.40;99.90
19172;DHT22;9718;52.200;21.052;2022-09-19T05:42:20;8.40;99.90
19172;DHT22;9718;52.200;21.052;2022-09-19T05:44:47;8.50;99.90
19172;DHT22;9718;52.200;21.052;2022-09-19T06:00:35;8.90;99.90
19172;DHT22;9718;52.200;21.052;2022-09-19T06:03:06;8.80;99.90
19172;DHT22;9718;52.200;21.052;2022-09-19T06:05:42;8.80;99.90
19172;DHT22;9718;52.200;21.052;2022-09-19T06:08:12;8.80;99.90
19172;DHT22;9718;52.200;21.052;2022-09-19T06:10:41;8.80;99.90
19172;DHT22;9718;52.200;21.052;2022-09-19T06:13:11;8.90;99.90
19172;DHT22;9718;52.200;21.052;2022-09-19T06:15:38;8.80;99.90
19172;DHT22;9718;52.200;21.052;2022-09-19T06:18:05;8.80;99.90
19172;DHT22;9718;52.200;21.052;2022-09-19T06:20:31;8.80;99.90
19172;DHT22;9718;52.200;21.052;2022-09-19T06:34:48;8.80;99.90
19172;DHT22;9718;52.200;21.052;2022-09-19T06:37:57;9.20;99.90
19172;DHT22;9718;52.200;21.052;2022-09-19T06:41:05;9.10;99.90
19172;DHT22;9718;52.200;21.052;2022-09-19T06:44:09;9.20;99.90
19172;DHT22;9718;52.200;21.052;2022-09-19T06:46:35;9.20;99.90
19172;DHT22;9718;52.200;21.052;2022-09-19T06:49:03;9.40;99.90
19172;DHT22;9718;52.200;21.052;2022-09-19T06:51:30;9.50;99.90
19172;DHT22;9718;52.200;21.052;2022-09-19T06:54:48;9.60;99.90
19172;DHT22;9718;52.200;21.052;2022-09-19T06:57:14;9.30;99.90
19172;DHT22;9718;52.200;21.052;2022-09-19T06:59:41;9.40;99.90
19172;DHT22;9718;52.200;21.052;2022-09-19T07:02:08;9.40;99.90
19172;DHT22;9718;52.200;21.052;2022-09-19T07:04:35;9.50;99.90
19172;DHT22;9718;52.200;21.052;2022-09-19T07:07:02;9.50;99.90
19172;DHT22;9718;52.200;21.052;2022-09-19T07:09:28;9.40;99.90
19172;DHT22;9718;52.200;21.052;2022-09-19T07:11:54;9.60;99.90
19172;DHT22;9718;52.200;21.052;2022-09-19T07:14:47;9.70;99.90
19172;DHT22;9718;52.200;21.052;2022-09-19T07:17:14;9.80;99.90
19172;DHT22;9718;52.200;21.052;2022-09-19T07:19:42;9.80;99.90
19172;DHT22;9718;52.200;21.052;2022-09-19T07:22:08;9.60;99.90
19172;DHT22;9718;52.200;21.052;2022-09-19T07:24:34;9.40;99.90
19172;DHT22;9718;52.200;21.052;2022-09-19T07:27:01;9.50;99.90
19172;DHT22;9718;52.200;21.052;2022-09-19T07:29:27;9.60;99.90
19172;DHT22;9718;52.200;21.052;2022-09-19T07:31:54;9.60;99.90
19172;DHT22;9718;52.200;21.052;2022-09-19T07:45:09;9.50;99.90
19172;DHT22;9718;52.200;21.052;2022-09-19T07:47:41;9.60;99.90
19172;DHT22;9718;52.200;21.052;2022-09-19T07:50:08;9.70;99.90
19172;DHT22;9718;52.200;21.052;2022-09-19T07:52:35;9.70;99.90
19172;DHT22;9718;52.200;21.052;2022-09-19T07:55:04;9.70;99.90
19172;DHT22;9718;52.200;21.052;2022-09-19T07:57:31;9.60;99.90
19172;DHT22;9718;52.200;21.052;2022-09-19T07:59:58;9.40;99.90
19172;DHT22;9718;52.200;21.052;2022-09-19T08:18:16;9.20;99.90
19172;DHT22;9718;52.200;21.052;2022-09-19T08:20:43;9.20;99.90
19172;DHT22;9718;52.200;21.052;2022-09-19T08:23:14;9.20;99.90
19172;DHT22;9718;52.200;21.052;2022-09-19T08:25:42;9.10;99.90
19172;DHT22;9718;52.200;21.052;2022-09-19T08:28:13;9.00;99.90
19172;DHT22;9718;52.200;21.052;2022-09-19T08:30:40;9.10;99.90
19172;DHT22;9718;52.200;21.052;2022-09-19T08:33:09;9.10;99.90
19172;DHT22;9718;52.200;21.052;2022-09-19T08:35:40;9.20;99.90
19172;DHT22;9718;52.200;21.052;2022-09-19T08:38:08;9.30;99.90
19172;DHT22;9718;52.200;21.052;2022-09-19T08:56:23;9.60;99.90
19172;DHT22;9718;52.200;21.052;2022-09-19T08:59:00;9.50;99.90
19172;DHT22;9718;52.200;21.052;2022-09-19T09:01:33;9.50;99.90
19172;DHT22;9718;52.200;21.052;2022-09-19T09:06:52;9.60;99.90
19172;DHT22;9718;52.200;21.052;2022-09-19T09:12:14;9.60;99.90
19172;DHT22;9718;52.200;21.052;2022-09-19T09:23:58;9.50;99.90
19172;DHT22;9718;52.200;21.052;2022-09-19T09:27:18;9.60;99.90
19172;DHT22;9718;52.200;21.052;2022-09-19T09:30:04;9.70;99.90
19172;DHT22;9718;52.200;21.052;2022-09-19T09:32:41;9.80;99.90
19172;DHT22;9718;52.200;21.052;2022-09-19T09:35:27;9.70;99.90
19172;DHT22;9718;52.200;21.052;2022-09-19T09:57:40;10.10;99.90
19172;DHT22;9718;52.200;21.052;2022-09-19T10:00:16;10.00;99.90
19172;DHT22;9718;52.200;21.052;2022-09-19T10:03:21;9.80;99.90
19172;DHT22;9718;52.200;21.052;2022-09-19T10:06:14;9.80;99.90
19172;DHT22;9718;52.200;21.052;2022-09-19T10:33:24;10.50;99.90
19172;DHT22;9718;52.200;21.052;2022-09-19T10:35:52;10.50;99.90
19172;DHT22;9718;52.200;21.052;2022-09-19T10:38:25;10.60;99.90
19172;DHT22;9718;52.200;21.052;2022-09-19T10:40:57;10.60;99.90
19172;DHT22;9718;52.200;21.052;2022-09-19T10:43:40;10.40;99.90
19172;DHT22;9718;52.200;21.052;2022-09-19T10:46:16;10.30;99.90
19172;DHT22;9718;52.200;21.052;2022-09-19T10:48:51;10.20;99.90
19172;DHT22;9718;52.200;21.052;2022-09-19T10:52:34;10.20;99.90
19172;DHT22;9718;52.200;21.052;2022-09-19T11:45:28;10.70;99.90
19172;DHT22;9718;52.200;21.052;2022-09-19T12:14:47;11.10;99.90
19172;DHT22;9718;52.200;21.052;2022-09-19T12:17:31;11.10;99.90
19172;DHT22;9718;52.200;21.052;2022-09-19T12:20:09;11.20;99.90
19172;DHT22;9718;52.200;21.052;2022-09-19T12:22:49;11.00;99.90
19172;DHT22;9718;52.200;21.052;2022-09-19T12:25:19;11.10;99.90
19172;DHT22;9718;52.200;21.052;2022-09-19T12:27:53;11.10;99.90
19172;DHT22;9718;52.200;21.052;2022-09-19T12:30:23;11.10;99.90
19172;DHT22;9718;52.200;21.052;2022-09-19T12:33:16;11.00;99.90
19172;DHT22;9718;52.200;21.052;2022-09-19T12:38:49;11.10;99.90
19172;DHT22;9718;52.200;21.052;2022-09-19T12:42:08;11.20;99.90
19172;DHT22;9718;52.200;21.052;2022-09-19T12:50:24;11.10;99.90
19172;DHT22;9718;52.200;21.052;2022-09-19T12:55:41;11.00;99.90
19172;DHT22;9718;52.200;21.052;2022-09-19T12:58:17;11.00;99.90
19172;DHT22;9718;52.200;21.052;2022-09-19T13:16:07;10.90;99.90
19172;DHT22;9718;52.200;21.052;2022-09-19T13:18:41;10.80;99.90
19172;DHT22;9718;52.200;21.052;2022-09-19T13:21:37;10.70;99.90
19172;DHT22;9718;52.200;21.052;2022-09-19T13:26:56;10.60;99.90
19172;DHT22;9718;52.200;21.052;2022-09-19T18:53:44;10.60;99.90
19172;DHT22;9718;52.200;21.052;2022-09-19T18:56:11;10.60;99.90
19172;DHT22;9718;52.200;21.052;2022-09-19T18:58:38;10.60;99.90
19172;DHT22;9718;52.200;21.052;2022-09-19T19:01:13;10.50;99.90
19172;DHT22;9718;52.200;21.052;2022-09-19T19:03:42;10.50;99.90
19172;DHT22;9718;52.200;21.052;2022-09-19T19:06:14;10.50;99.90
19172;DHT22;9718;52.200;21.052;2022-09-19T19:09:11;10.40;99.90
19172;DHT22;9718;52.200;21.052;2022-09-19T19:11:38;10.60;99.90
19172;DHT22;9718;52.200;21.052;2022-09-19T19:14:05;10.60;99.90
19172;DHT22;9718;52.200;21.052;2022-09-19T19:16:31;10.70;99.90
19172;DHT22;9718;52.200;21.052;2022-09-19T19:19:29;10.70;99.90
19172;DHT22;9718;52.200;21.052;2022-09-19T19:21:56;10.70;99.90
19172;DHT22;9718;52.200;21.052;2022-09-19T19:24:22;10.60;99.90
19172;DHT22;9718;52.200;21.052;2022-09-19T19:26:54;10.60;99.90
19172;DHT22;9718;52.200;21.052;2022-09-19T19:29:21;10.60;99.90
19172;DHT22;9718;52.200;21.052;2022-09-19T19:31:48;10.60;99.90
19172;DHT22;9718;52.200;21.052;2022-09-19T19:34:14;10.60;99.90
19172;DHT22;9718;52.200;21.052;2022-09-19T19:36:41;10.60;99.90
19172;DHT22;9718;52.200;21.052;2022-09-19T19:39:07;10.60;99.90
19172;DHT22;9718;52.200;21.052;2022-09-19T19:52:15;10.60;99.90
19172;DHT22;9718;52.200;21.052;2022-09-19T19:54:42;10.70;99.90
19172;DHT22;9718;52.200;21.052;2022-09-19T19:57:17;10.80;99.90
19172;DHT22;9718;52.200;21.052;2022-09-19T19:59:44;10.70;99.90
19172;DHT22;9718;52.200;21.052;2022-09-19T20:02:11;10.70;99.90
19172;DHT22;9718;52.200;21.052;2022-09-19T20:04:39;10.80;99.90
19172;DHT22;9718;52.200;21.052;2022-09-19T20:07:06;10.80;99.90
19172;DHT22;9718;52.200;21.052;2022-09-19T20:09:32;10.70;99.90
19172;DHT22;9718;52.200;21.052;2022-09-19T20:12:00;10.70;99.90
19172;DHT22;9718;52.200;21.052;2022-09-19T20:14:26;10.70;99.90
19172;DHT22;9718;52.200;21.052;2022-09-19T20:17:03;10.70;99.90
19172;DHT22;9718;52.200;21.052;2022-09-19T20:19:29;10.70;99.90
19172;DHT22;9718;52.200;21.052;2022-09-19T20:21:56;10.70;99.90
19172;DHT22;9718;52.200;21.052;2022-09-19T20:24:23;10.70;99.90
19172;DHT22;9718;52.200;21.052;2022-09-19T20:26:51;10.70;99.90
19172;DHT22;9718;52.200;21.052;2022-09-19T20:29:19;10.80;99.90
19172;DHT22;9718;52.200;21.052;2022-09-19T20:31:48;10.80;99.90
19172;DHT22;9718;52.200;21.052;2022-09-19T20:34:15;10.90;99.90
19172;DHT22;9718;52.200;21.052;2022-09-19T20:37:33;10.90;99.90
19172;DHT22;9718;52.200;21.052;2022-09-19T20:40:00;11.00;99.90
19172;DHT22;9718;52.200;21.052;2022-09-19T20:42:27;11.00;99.90
19172;DHT22;9718;52.200;21.052;2022-09-19T20:44:53;10.90;99.90
19172;DHT22;9718;52.200;21.052;2022-09-19T20:47:20;11.00;99.90
19172;DHT22;9718;52.200;21.052;2022-09-19T20:49:58;11.00;99.90
19172;DHT22;9718;52.200;21.052;2022-09-19T20:52:25;11.10;99.90
19172;DHT22;9718;52.200;21.052;2022-09-19T20:54:51;11.20;99.90
19172;DHT22;9718;52.200;21.052;2022-09-19T21:00:10;11.20;99.90
19172;DHT22;9718;52.200;21.052;2022-09-19T21:02:37;11.10;99.90
19172;DHT22;9718;52.200;21.052;2022-09-19T21:05:03;11.10;99.90
19172;DHT22;9718;52.200;21.052;2022-09-19T21:07:29;11.00;99.90
19172;DHT22;9718;52.200;21.052;2022-09-19T21:09:56;11.10;99.90
19172;DHT22;9718;52.200;21.052;2022-09-19T21:12:22;11.00;99.90
19172;DHT22;9718;52.200;21.052;2022-09-19T21:15:08;10.90;99.90
19172;DHT22;9718;52.200;21.052;2022-09-19T21:17:35;11.00;99.90
19172;DHT22;9718;52.200;21.052;2022-09-19T21:32:47;11.00;99.90
19172;DHT22;9718;52.200;21.052;2022-09-19T21:35:13;11.10;99.90
19172;DHT22;9718;52.200;21.052;2022-09-19T21:37:39;11.00;99.90
19172;DHT22;9718;52.200;21.052;2022-09-19T21:40:06;10.90;99.90
19172;DHT22;9718;52.200;21.052;2022-09-19T21:42:33;10.80;99.90
19172;DHT22;9718;52.200;21.052;2022-09-19T21:44:59;10.80;99.90
19172;DHT22;9718;52.200;21.052;2022-09-19T21:47:25;10.70;99.90
19172;DHT22;9718;52.200;21.052;2022-09-19T21:49:51;10.70;99.90
19172;DHT22;9718;52.200;21.052;2022-09-19T21:52:18;10.70;99.90
19172;DHT22;9718;52.200;21.052;2022-09-19T21:54:43;10.80;99.90
